createdAt,value
2022-09-16T00:00:45.380Z,9.46
2022-09-16T00:03:47.770Z,9.84
2022-09-16T00:06:50.009Z,9.48
2022-09-16T00:09:52.145Z,9.66
2022-09-16T00:12:54.188Z,9.54
2022-09-16T00:15:56.464Z,9.48
2022-09-16T00:19:00.772Z,9.41
2022-09-16T00:22:03.103Z,9.50
2022-09-16T00:25:05.761Z,9.44
2022-09-16T00:28:07.864Z,9.39
2022-09-16T00:31:10.254Z,9.32
2022-09-16T00:34:12.347Z,9.53
2022-09-16T00:37:14.414Z,9.41
2022-09-16T00:40:16.625Z,9.27
2022-09-16T00:43:19.337Z,9.47
2022-09-16T00:46:34.699Z,9.36
2022-09-16T00:49:36.831Z,9.51
2022-09-16T00:52:39.736Z,9.60
2022-09-16T00:55:41.792Z,9.50
2022-09-16T00:58:51.257Z,9.30
2022-09-16T01:01:54.623Z,9.36
2022-09-16T01:05:17.731Z,9.34
2022-09-16T01:08:19.789Z,9.31
2022-09-16T01:11:21.876Z,9.15
2022-09-16T01:14:42.918Z,9.22
2022-09-16T01:17:54.288Z,9.03
2022-09-16T01:21:15.450Z,8.99
2022-09-16T01:24:41.215Z,8.91
2022-09-16T01:28:19.929Z,8.97
2022-09-16T01:31:50.301Z,8.89
2022-09-16T01:35:11.773Z,8.60
2022-09-16T01:38:30.432Z,8.61
2022-09-16T01:42:08.804Z,8.44
2022-09-16T01:45:26.891Z,8.59
2022-09-16T01:48:44.513Z,8.62
2022-09-16T01:52:21.397Z,8.67
2022-09-16T01:56:00.853Z,8.75
2022-09-16T01:59:18.236Z,8.57
2022-09-16T02:02:23.475Z,8.74
2022-09-16T02:05:49.530Z,8.57
2022-09-16T02:08:57.926Z,8.62
2022-09-16T02:12:05.509Z,8.34
2022-09-16T02:15:09.683Z,8.53
2022-09-16T02:18:13.608Z,8.59
2022-09-16T02:21:16.211Z,8.40
2022-09-16T02:24:19.847Z,8.50
2022-09-16T02:27:22.267Z,8.38
2022-09-16T02:30:24.348Z,8.50
2022-09-16T02:33:49.242Z,8.44
2022-09-16T02:36:56.427Z,8.48
2022-09-16T02:40:02.395Z,8.48
2022-09-16T02:43:05.384Z,8.38
2022-09-16T02:46:29.421Z,8.32
2022-09-16T02:49:44.147Z,8.11
2022-09-16T02:53:21.616Z,8.06
2022-09-16T02:56:29.830Z,8.30
2022-09-16T02:59:31.938Z,8.32
2022-09-16T03:02:34.873Z,8.20
2022-09-16T03:06:08.924Z,8.05
2022-09-16T03:09:15.179Z,8.13
2022-09-16T03:12:34.604Z,8.09
2022-09-16T03:16:10.263Z,8.00
2022-09-16T03:20:12.088Z,8.15
2022-09-16T03:23:49.572Z,8.25
2022-09-16T03:27:19.144Z,8.11
2022-09-16T03:30:21.234Z,7.98
2022-09-16T03:33:38.006Z,7.83
2022-09-16T03:36:44.415Z,7.74
2022-09-16T03:39:56.126Z,7.65
2022-09-16T03:42:58.349Z,7.70
2022-09-16T03:46:00.577Z,7.79
2022-09-16T03:49:03.070Z,7.69
2022-09-16T03:52:05.701Z,7.69
2022-09-16T03:55:08.791Z,7.70
2022-09-16T03:58:10.907Z,7.73
2022-09-16T04:01:14.356Z,7.68
2022-09-16T04:04:16.435Z,7.64
2022-09-16T04:07:18.517Z,7.70
2022-09-16T04:10:20.661Z,7.65
2022-09-16T04:13:22.804Z,7.54
2022-09-16T04:16:25.419Z,7.46
2022-09-16T04:19:27.530Z,7.47
2022-09-16T04:22:30.764Z,7.37
2022-09-16T04:25:33.839Z,7.33
2022-09-16T04:28:35.919Z,7.30
2022-09-16T04:31:38.090Z,7.06
2022-09-16T04:34:40.226Z,7.19
2022-09-16T04:37:42.327Z,7.24
2022-09-16T04:40:44.394Z,7.21
2022-09-16T04:43:47.137Z,7.23
2022-09-16T04:46:49.230Z,7.27
2022-09-16T04:49:51.385Z,7.62
2022-09-16T04:52:53.530Z,7.54
2022-09-16T04:56:05.220Z,7.56
2022-09-16T04:59:07.319Z,7.74
2022-09-16T05:02:09.478Z,7.59
2022-09-16T05:05:12.174Z,7.49
2022-09-16T05:08:14.365Z,7.46
2022-09-16T05:11:24.720Z,7.53
2022-09-16T05:14:27.503Z,7.33
2022-09-16T05:17:51.298Z,7.32
2022-09-16T05:21:01.171Z,7.28
2022-09-16T05:24:05.225Z,7.22
2022-09-16T05:27:07.274Z,7.28
2022-09-16T05:30:10.477Z,7.14
2022-09-16T05:33:12.620Z,7.14
2022-09-16T05:36:17.063Z,7.09
2022-09-16T05:39:24.006Z,7.00
2022-09-16T05:42:26.980Z,7.00
2022-09-16T05:45:32.349Z,7.13
2022-09-16T05:48:35.309Z,7.05
2022-09-16T05:51:38.571Z,7.01
2022-09-16T05:54:40.643Z,7.02
2022-09-16T05:57:42.684Z,7.07
2022-09-16T06:00:45.148Z,7.11
2022-09-16T06:03:48.367Z,7.00
2022-09-16T06:06:50.527Z,6.88
2022-09-16T06:09:53.096Z,6.91
2022-09-16T06:16:15.008Z,6.83
2022-09-16T06:19:18.102Z,7.14
2022-09-16T06:22:20.154Z,7.21
2022-09-16T06:25:22.272Z,7.15
2022-09-16T06:28:24.348Z,7.26
2022-09-16T06:31:27.579Z,7.28
2022-09-16T06:34:29.931Z,7.32
2022-09-16T06:37:32.074Z,7.48
2022-09-16T06:40:34.232Z,7.61
2022-09-16T06:43:36.524Z,7.66
2022-09-16T06:46:38.841Z,7.56
2022-09-16T06:49:40.908Z,7.70
2022-09-16T06:52:43.047Z,7.63
2022-09-16T06:55:45.128Z,7.74
2022-09-16T06:58:49.920Z,7.90
2022-09-16T07:01:52.959Z,8.18
2022-09-16T07:04:55.169Z,8.21
2022-09-16T07:07:58.458Z,8.33
2022-09-16T07:11:05.469Z,8.47
2022-09-16T07:14:09.428Z,8.54
2022-09-16T07:17:11.544Z,8.47
2022-09-16T07:20:13.631Z,8.38
2022-09-16T07:23:15.719Z,8.41
2022-09-16T07:26:23.179Z,8.73
2022-09-16T07:29:25.352Z,8.75
2022-09-16T07:32:27.420Z,8.85
2022-09-16T07:35:29.556Z,8.69
2022-09-16T07:38:31.820Z,8.47
2022-09-16T07:41:36.647Z,8.45
2022-09-16T07:44:38.704Z,8.32
2022-09-16T07:47:40.787Z,8.54
2022-09-16T07:50:42.869Z,8.89
2022-09-16T07:53:45.355Z,8.66
2022-09-16T07:56:47.540Z,8.71
2022-09-16T07:59:50.155Z,9.14
2022-09-16T08:02:57.805Z,9.00
2022-09-16T08:06:22.342Z,9.41
2022-09-16T08:09:37.620Z,9.53
2022-09-16T08:12:40.915Z,9.45
2022-09-16T08:15:42.952Z,9.65
2022-09-16T08:18:46.600Z,9.62
2022-09-16T08:21:48.717Z,9.38
2022-09-16T08:24:50.758Z,9.65
2022-09-16T08:27:55.607Z,9.66
2022-09-16T08:37:41.440Z,9.75
2022-09-16T08:40:44.920Z,9.83
2022-09-16T08:44:01.697Z,10.27
2022-09-16T08:47:38.460Z,9.70
2022-09-16T08:50:42.360Z,10.37
2022-09-16T08:54:06.673Z,10.05
2022-09-16T08:57:17.542Z,10.04
2022-09-16T09:00:20.260Z,10.16
2022-09-16T09:03:37.961Z,10.26
2022-09-16T09:07:01.412Z,10.28
2022-09-16T09:10:18.515Z,10.71
2022-09-16T09:13:38.531Z,10.78
2022-09-16T09:17:04.838Z,10.78
2022-09-16T09:20:12.658Z,10.71
2022-09-16T09:23:40.476Z,10.74
2022-09-16T09:27:17.155Z,11.29
2022-09-16T09:30:28.529Z,11.43
2022-09-16T09:33:47.088Z,11.98
2022-09-16T09:37:04.990Z,12.01
2022-09-16T09:40:19.544Z,12.12
2022-09-16T09:43:53.407Z,11.53
2022-09-16T09:46:59.285Z,10.54
2022-09-16T09:50:36.576Z,11.40
2022-09-16T09:53:47.096Z,11.16
2022-09-16T09:56:49.315Z,11.44
2022-09-16T10:00:00.889Z,11.46
2022-09-16T10:03:11.791Z,11.46
2022-09-16T10:06:13.946Z,11.19
2022-09-16T10:09:16.355Z,12.20
2022-09-16T10:12:31.844Z,11.66
2022-09-16T10:15:35.109Z,11.11
2022-09-16T10:18:37.210Z,11.63
2022-09-16T10:22:19.319Z,11.14
2022-09-16T10:25:25.174Z,12.27
2022-09-16T10:28:28.374Z,11.65
2022-09-16T10:31:36.727Z,13.08
2022-09-16T10:34:40.185Z,12.85
2022-09-16T10:37:48.151Z,12.35
2022-09-16T10:41:14.358Z,12.14
2022-09-16T10:44:25.212Z,12.86
2022-09-16T10:47:32.387Z,12.26
2022-09-16T10:50:34.498Z,13.32
2022-09-16T10:53:43.669Z,14.51
2022-09-16T10:56:51.148Z,14.42
2022-09-16T11:00:07.372Z,13.59
2022-09-16T11:03:37.006Z,12.04
2022-09-16T11:07:09.038Z,11.63
2022-09-16T11:10:38.731Z,12.99
2022-09-16T11:13:52.796Z,13.95
2022-09-16T11:17:57.848Z,13.48
2022-09-16T11:21:38.799Z,13.65
2022-09-16T11:25:14.131Z,13.95
2022-09-16T11:28:55.472Z,14.17
2022-09-16T11:32:35.968Z,14.25
2022-09-16T11:36:36.860Z,13.36
2022-09-16T11:39:57.461Z,13.20
2022-09-16T11:43:34.824Z,14.73
2022-09-16T11:47:16.760Z,13.84
2022-09-16T11:50:45.722Z,12.82
2022-09-16T11:54:02.706Z,12.72
2022-09-16T11:57:13.255Z,15.64
2022-09-16T12:00:18.478Z,15.78
2022-09-16T12:03:48.605Z,13.75
2022-09-16T12:07:10.150Z,13.15
2022-09-16T12:10:30.301Z,15.13
2022-09-16T12:13:37.319Z,14.65
2022-09-16T12:17:06.542Z,15.18
2022-09-16T12:20:19.395Z,13.23
2022-09-16T12:23:25.464Z,15.35
2022-09-16T12:26:33.399Z,14.57
2022-09-16T12:29:59.479Z,14.16
2022-09-16T12:33:38.993Z,13.63
2022-09-16T12:36:44.802Z,14.38
2022-09-16T12:39:49.857Z,15.29
2022-09-16T12:43:11.011Z,16.94
2022-09-16T12:46:59.823Z,15.50
2022-09-16T12:50:54.576Z,16.15
2022-09-16T12:54:00.836Z,15.22
2022-09-16T12:57:47.108Z,14.16
2022-09-16T13:01:24.724Z,13.02
2022-09-16T13:04:39.780Z,14.67
2022-09-16T13:07:41.867Z,16.40
2022-09-16T13:10:57.772Z,16.89
2022-09-16T13:14:14.248Z,15.66
2022-09-16T13:17:29.349Z,14.85
2022-09-16T13:20:39.395Z,14.26
2022-09-16T13:23:45.022Z,16.02
2022-09-16T13:26:47.413Z,18.46
2022-09-16T13:29:49.514Z,18.29
2022-09-16T13:32:51.445Z,15.88
2022-09-16T13:36:16.762Z,15.84
2022-09-16T13:39:31.413Z,17.69
2022-09-16T13:42:33.506Z,19.02
2022-09-16T13:45:41.072Z,16.56
2022-09-16T13:49:02.871Z,16.51
2022-09-16T13:52:28.096Z,14.42
2022-09-16T13:55:30.136Z,15.45
2022-09-16T13:58:59.287Z,16.56
2022-09-16T14:02:13.031Z,14.73
2022-09-16T14:05:46.229Z,14.84
2022-09-16T14:09:26.283Z,16.70
2022-09-16T14:13:11.039Z,18.19
2022-09-16T14:16:23.064Z,17.48
2022-09-16T14:19:32.514Z,17.43
2022-09-16T14:22:34.606Z,17.10
2022-09-16T14:25:37.016Z,14.65
2022-09-16T14:28:39.583Z,14.81
2022-09-16T14:31:45.323Z,14.07
2022-09-16T14:34:47.698Z,14.10
2022-09-16T14:37:56.582Z,14.06
2022-09-16T14:40:58.808Z,14.49
2022-09-16T14:44:19.051Z,14.76
2022-09-16T14:47:47.395Z,13.96
2022-09-16T14:50:52.596Z,14.46
2022-09-16T14:54:12.166Z,14.42
2022-09-16T14:57:23.046Z,14.27
2022-09-16T15:00:46.938Z,14.43
2022-09-16T15:04:03.926Z,19.72
2022-09-16T15:07:12.544Z,15.26
2022-09-16T15:10:30.295Z,15.24
2022-09-16T15:13:42.215Z,18.15
2022-09-16T15:16:51.190Z,15.67
2022-09-16T15:19:58.718Z,20.43
2022-09-16T15:23:02.830Z,19.73
2022-09-16T15:26:16.261Z,18.40
2022-09-16T15:29:18.331Z,15.16
2022-09-16T15:32:24.126Z,15.66
2022-09-16T15:35:27.400Z,15.14
2022-09-16T15:38:30.069Z,14.44
2022-09-16T15:41:32.310Z,13.05
2022-09-16T15:44:37.414Z,13.65
2022-09-16T15:47:54.731Z,14.58
2022-09-16T15:51:02.523Z,13.99
2022-09-16T15:54:14.449Z,13.88
2022-09-16T15:57:31.879Z,14.76
2022-09-16T16:00:57.640Z,18.81
2022-09-16T16:04:01.125Z,18.66
2022-09-16T16:07:05.265Z,19.57
2022-09-16T16:10:23.826Z,18.74
2022-09-16T16:13:25.897Z,18.47
2022-09-16T16:16:28.209Z,16.02
2022-09-16T16:19:30.550Z,18.80
2022-09-16T16:22:32.918Z,17.14
2022-09-16T16:25:35.143Z,16.33
2022-09-16T16:28:38.617Z,16.00
2022-09-16T16:31:40.898Z,18.32
2022-09-16T16:34:50.330Z,17.94
2022-09-16T16:37:52.425Z,19.23
2022-09-16T16:40:54.558Z,20.36
2022-09-16T16:43:56.620Z,18.25
2022-09-16T16:46:58.775Z,15.79
2022-09-16T16:50:01.730Z,14.51
2022-09-16T16:53:03.849Z,13.45
2022-09-16T16:56:15.194Z,12.88
2022-09-16T16:59:17.984Z,13.81
2022-09-16T17:02:20.204Z,17.01
2022-09-16T17:05:22.325Z,17.84
2022-09-16T17:08:24.432Z,18.16
2022-09-16T17:11:26.771Z,15.78
2022-09-16T17:14:30.230Z,13.67
2022-09-16T17:17:32.305Z,13.46
2022-09-16T17:20:34.375Z,13.15
2022-09-16T17:23:36.567Z,12.51
2022-09-16T17:26:39.742Z,12.43
2022-09-16T17:29:41.808Z,12.63
2022-09-16T17:32:43.875Z,12.96
2022-09-16T17:35:45.920Z,12.44
2022-09-16T17:38:49.218Z,12.53
2022-09-16T17:41:51.516Z,13.35
2022-09-16T17:44:53.665Z,13.40
2022-09-16T17:47:57.669Z,12.64
2022-09-16T17:50:59.900Z,12.19
2022-09-16T17:54:03.391Z,12.44
2022-09-16T17:57:05.478Z,13.46
2022-09-16T18:00:08.505Z,13.89
2022-09-16T18:03:16.510Z,12.99
2022-09-16T18:06:31.041Z,12.52
2022-09-16T18:09:33.146Z,12.10
2022-09-16T18:12:35.204Z,11.66
2022-09-16T18:15:37.330Z,10.96
2022-09-16T18:18:40.780Z,11.05
2022-09-16T18:21:42.847Z,11.39
2022-09-16T18:24:44.958Z,11.14
2022-09-16T18:27:47.209Z,11.26
2022-09-16T18:31:00.974Z,11.30
2022-09-16T18:34:03.218Z,10.95
2022-09-16T18:37:05.340Z,10.83
2022-09-16T18:40:08.634Z,11.13
2022-09-16T18:43:10.779Z,11.04
2022-09-16T18:46:26.164Z,11.24
2022-09-16T18:49:30.171Z,10.96
2022-09-16T18:52:32.271Z,10.80
2022-09-16T18:55:34.306Z,10.84
2022-09-16T18:58:36.343Z,10.51
2022-09-16T19:01:39.177Z,10.33
2022-09-16T19:04:42.829Z,10.75
2022-09-16T19:07:44.879Z,9.84
2022-09-16T19:10:47.784Z,8.61
2022-09-16T19:13:50.350Z,8.76
2022-09-16T19:16:53.193Z,9.13
2022-09-16T19:19:55.329Z,9.66
2022-09-16T19:22:57.396Z,10.38
2022-09-16T19:26:03.771Z,10.48
2022-09-16T19:29:06.967Z,9.34
2022-09-16T19:32:09.029Z,8.10
2022-09-16T19:35:11.206Z,8.26
2022-09-16T19:38:13.242Z,8.73
2022-09-16T19:41:15.839Z,9.13
2022-09-16T19:44:18.117Z,9.29
2022-09-16T19:47:20.208Z,9.36
2022-09-16T19:50:22.376Z,9.27
2022-09-16T19:53:24.443Z,8.77
2022-09-16T19:56:28.559Z,8.35
2022-09-16T19:59:30.639Z,9.16
2022-09-16T20:02:33.030Z,9.19
2022-09-16T20:05:35.360Z,8.96
2022-09-16T20:08:39.507Z,8.69
2022-09-16T20:11:44.738Z,8.96
2022-09-16T20:14:46.824Z,9.31
2022-09-16T20:17:48.887Z,9.18
2022-09-16T20:20:50.934Z,8.80
2022-09-16T20:23:53.672Z,8.96
2022-09-16T20:26:57.380Z,9.41
2022-09-16T20:29:59.481Z,9.46
2022-09-16T20:33:01.555Z,9.16
2022-09-16T20:36:11.774Z,9.11
2022-09-16T20:39:14.476Z,8.89
2022-09-16T20:42:16.835Z,9.27
2022-09-16T20:45:18.947Z,9.41
2022-09-16T20:48:21.048Z,9.31
2022-09-16T20:51:25.651Z,9.15
2022-09-16T20:54:27.743Z,9.32
2022-09-16T20:57:29.871Z,8.91
2022-09-16T21:00:32.956Z,9.10
2022-09-16T21:03:35.142Z,8.76
2022-09-16T21:06:37.413Z,8.86
2022-09-16T21:09:39.787Z,8.76
2022-09-16T21:12:41.895Z,8.89
2022-09-16T21:15:44.027Z,8.96
2022-09-16T21:18:46.177Z,9.00
2022-09-16T21:21:48.540Z,8.91
2022-09-16T21:24:50.726Z,8.81
2022-09-16T21:27:52.835Z,9.12
2022-09-16T21:31:02.478Z,9.21
2022-09-16T21:34:06.369Z,9.08
2022-09-16T21:37:08.484Z,9.09
2022-09-16T21:40:12.410Z,8.77
2022-09-16T21:43:14.524Z,8.48
2022-09-16T21:46:22.112Z,8.31
2022-09-16T21:49:25.712Z,8.20
2022-09-16T21:52:27.896Z,8.31
2022-09-16T21:55:30.611Z,8.27
2022-09-16T21:58:33.057Z,8.25
2022-09-16T22:01:35.585Z,8.41
2022-09-16T22:04:37.729Z,8.43
2022-09-16T22:07:39.795Z,8.34
2022-09-16T22:10:41.867Z,8.26
2022-09-16T22:13:43.917Z,8.21
2022-09-16T22:16:46.104Z,8.31
2022-09-16T22:19:48.207Z,8.31
2022-09-16T22:22:50.380Z,8.37
2022-09-16T22:25:52.486Z,8.24
2022-09-16T22:28:54.583Z,8.40
2022-09-16T22:31:56.629Z,8.51
2022-09-16T22:34:58.694Z,8.61
2022-09-16T22:38:00.878Z,8.68
2022-09-16T22:41:07.320Z,8.55
2022-09-16T22:44:09.515Z,8.48
2022-09-16T22:47:11.616Z,8.66
2022-09-16T22:50:13.796Z,8.62
2022-09-16T22:53:15.840Z,8.43
2022-09-16T22:56:20.791Z,8.66
2022-09-16T22:59:23.371Z,8.28
2022-09-16T23:02:25.497Z,8.51
2022-09-16T23:05:27.978Z,8.26
2022-09-16T23:08:30.771Z,8.32
2022-09-16T23:11:34.431Z,8.09
2022-09-16T23:14:37.038Z,8.05
2022-09-16T23:17:41.358Z,8.26
2022-09-16T23:20:43.445Z,8.25
2022-09-16T23:23:53.719Z,8.13
2022-09-16T23:26:55.923Z,8.27
2022-09-16T23:29:58.145Z,8.12
2022-09-16T23:33:00.170Z,7.97
2022-09-16T23:36:02.855Z,8.05
2022-09-16T23:39:06.503Z,8.02
2022-09-16T23:42:08.774Z,7.89
2022-09-16T23:45:11.090Z,7.87
2022-09-16T23:48:13.383Z,7.98
2022-09-16T23:51:15.423Z,7.87
2022-09-16T23:54:17.576Z,7.74
2022-09-16T23:57:19.642Z,7.90
